sensor_id;sensor_type;location;lat;lon;timestamp;temperature;humidity
33095;DHT22;19459;53.044;8.910;2023-04-25T00:01:32;8.10;99.90
33095;DHT22;19459;53.044;8.910;2023-04-25T00:04:01;8.00;99.90
33095;DHT22;19459;53.044;8.910;2023-04-25T00:06:28;8.00;99.90
33095;DHT22;19459;53.044;8.910;2023-04-25T00:08:55;8.00;99.90
33095;DHT22;19459;53.044;8.910;2023-04-25T00:11:22;7.90;99.90
33095;DHT22;19459;53.044;8.910;2023-04-25T00:13:48;7.90;99.90
33095;DHT22;19459;53.044;8.910;2023-04-25T00:16:16;7.80;99.90
33095;DHT22;19459;53.044;8.910;2023-04-25T00:18:42;7.80;99.90
33095;DHT22;19459;53.044;8.910;2023-04-25T00:21:08;7.80;99.90
33095;DHT22;19459;53.044;8.910;2023-04-25T00:23:34;7.80;99.90
33095;DHT22;19459;53.044;8.910;2023-04-25T00:26:02;7.80;99.90
33095;DHT22;19459;53.044;8.910;2023-04-25T00:28:28;7.70;99.90
33095;DHT22;19459;53.044;8.910;2023-04-25T00:30:54;7.70;99.90
33095;DHT22;19459;53.044;8.910;2023-04-25T00:33:20;7.70;99.90
33095;DHT22;19459;53.044;8.910;2023-04-25T00:35:46;7.70;99.90
33095;DHT22;19459;53.044;8.910;2023-04-25T00:38:12;7.70;99.90
33095;DHT22;19459;53.044;8.910;2023-04-25T00:40:38;7.70;99.90
33095;DHT22;19459;53.044;8.910;2023-04-25T00:43:04;7.70;99.90
33095;DHT22;19459;53.044;8.910;2023-04-25T00:45:29;7.70;99.90
33095;DHT22;19459;53.044;8.910;2023-04-25T00:47:56;7.70;99.90
33095;DHT22;19459;53.044;8.910;2023-04-25T00:50:22;7.70;99.90
33095;DHT22;19459;53.044;8.910;2023-04-25T00:52:49;7.60;99.90
33095;DHT22;19459;53.044;8.910;2023-04-25T00:55:15;7.60;99.90
33095;DHT22;19459;53.044;8.910;2023-04-25T00:57:41;7.60;99.90
33095;DHT22;19459;53.044;8.910;2023-04-25T01:00:08;7.60;99.90
33095;DHT22;19459;53.044;8.910;2023-04-25T01:02:36;7.70;99.90
33095;DHT22;19459;53.044;8.910;2023-04-25T01:05:03;7.70;99.90
33095;DHT22;19459;53.044;8.910;2023-04-25T01:07:29;7.70;99.90
33095;DHT22;19459;53.044;8.910;2023-04-25T01:09:55;7.70;99.90
33095;DHT22;19459;53.044;8.910;2023-04-25T01:12:22;7.70;99.90
33095;DHT22;19459;53.044;8.910;2023-04-25T01:14:48;7.70;99.90
33095;DHT22;19459;53.044;8.910;2023-04-25T01:17:15;7.70;99.90
33095;DHT22;19459;53.044;8.910;2023-04-25T01:19:41;7.70;99.90
33095;DHT22;19459;53.044;8.910;2023-04-25T01:22:07;7.60;99.90
33095;DHT22;19459;53.044;8.910;2023-04-25T01:24:35;7.60;99.90
33095;DHT22;19459;53.044;8.910;2023-04-25T01:27:02;7.60;99.90
33095;DHT22;19459;53.044;8.910;2023-04-25T01:29:29;7.60;99.90
33095;DHT22;19459;53.044;8.910;2023-04-25T01:31:55;7.60;99.90
33095;DHT22;19459;53.044;8.910;2023-04-25T01:34:21;7.50;99.90
33095;DHT22;19459;53.044;8.910;2023-04-25T01:36:50;7.50;99.90
33095;DHT22;19459;53.044;8.910;2023-04-25T01:39:17;7.50;99.90
33095;DHT22;19459;53.044;8.910;2023-04-25T01:41:43;7.40;99.90
33095;DHT22;19459;53.044;8.910;2023-04-25T01:44:10;7.40;99.90
33095;DHT22;19459;53.044;8.910;2023-04-25T01:46:36;7.40;99.90
33095;DHT22;19459;53.044;8.910;2023-04-25T01:49:02;7.40;99.90
33095;DHT22;19459;53.044;8.910;2023-04-25T01:51:28;7.40;99.90
33095;DHT22;19459;53.044;8.910;2023-04-25T01:53:55;7.40;99.90
33095;DHT22;19459;53.044;8.910;2023-04-25T01:56:20;7.40;99.90
33095;DHT22;19459;53.044;8.910;2023-04-25T01:58:46;7.40;99.90
33095;DHT22;19459;53.044;8.910;2023-04-25T02:01:12;7.40;99.90
33095;DHT22;19459;53.044;8.910;2023-04-25T02:03:38;7.40;99.90
33095;DHT22;19459;53.044;8.910;2023-04-25T02:06:04;7.40;99.90
33095;DHT22;19459;53.044;8.910;2023-04-25T02:08:30;7.40;99.90
33095;DHT22;19459;53.044;8.910;2023-04-25T02:10:56;7.30;99.90
33095;DHT22;19459;53.044;8.910;2023-04-25T02:13:22;7.30;99.90
33095;DHT22;19459;53.044;8.910;2023-04-25T02:15:48;7.30;99.90
33095;DHT22;19459;53.044;8.910;2023-04-25T02:18:14;7.30;99.90
33095;DHT22;19459;53.044;8.910;2023-04-25T02:20:42;7.30;99.90
33095;DHT22;19459;53.044;8.910;2023-04-25T02:23:08;7.20;99.90
33095;DHT22;19459;53.044;8.910;2023-04-25T02:25:34;7.20;99.90
33095;DHT22;19459;53.044;8.910;2023-04-25T02:28:00;7.20;99.90
33095;DHT22;19459;53.044;8.910;2023-04-25T02:30:25;7.10;99.90
33095;DHT22;19459;53.044;8.910;2023-04-25T02:32:51;7.10;99.90
33095;DHT22;19459;53.044;8.910;2023-04-25T02:35:17;7.10;99.90
33095;DHT22;19459;53.044;8.910;2023-04-25T02:37:43;7.00;99.90
33095;DHT22;19459;53.044;8.910;2023-04-25T02:40:09;7.00;99.90
33095;DHT22;19459;53.044;8.910;2023-04-25T02:42:35;7.00;99.90
33095;DHT22;19459;53.044;8.910;2023-04-25T02:45:02;7.00;99.90
33095;DHT22;19459;53.044;8.910;2023-04-25T02:47:30;6.90;99.90
33095;DHT22;19459;53.044;8.910;2023-04-25T02:49:56;6.90;99.90
33095;DHT22;19459;53.044;8.910;2023-04-25T02:52:22;6.90;99.90
33095;DHT22;19459;53.044;8.910;2023-04-25T02:54:48;6.80;99.90
33095;DHT22;19459;53.044;8.910;2023-04-25T02:57:14;6.80;99.90
33095;DHT22;19459;53.044;8.910;2023-04-25T02:59:40;6.80;99.90
33095;DHT22;19459;53.044;8.910;2023-04-25T03:02:06;6.80;99.90
33095;DHT22;19459;53.044;8.910;2023-04-25T03:04:31;6.80;99.90
33095;DHT22;19459;53.044;8.910;2023-04-25T03:06:58;6.80;99.90
33095;DHT22;19459;53.044;8.910;2023-04-25T03:09:25;6.70;99.90
33095;DHT22;19459;53.044;8.910;2023-04-25T03:11:50;6.80;99.90
33095;DHT22;19459;53.044;8.910;2023-04-25T03:14:16;6.70;99.90
33095;DHT22;19459;53.044;8.910;2023-04-25T03:16:42;6.80;99.90
33095;DHT22;19459;53.044;8.910;2023-04-25T03:19:07;6.80;99.90
33095;DHT22;19459;53.044;8.910;2023-04-25T03:21:35;6.80;99.90
33095;DHT22;19459;53.044;8.910;2023-04-25T03:24:02;6.80;99.90
33095;DHT22;19459;53.044;8.910;2023-04-25T03:26:29;6.80;99.90
33095;DHT22;19459;53.044;8.910;2023-04-25T03:28:55;6.70;99.90
33095;DHT22;19459;53.044;8.910;2023-04-25T03:31:20;6.70;99.90
33095;DHT22;19459;53.044;8.910;2023-04-25T03:33:47;6.70;99.90
33095;DHT22;19459;53.044;8.910;2023-04-25T03:36:13;6.70;99.90
33095;DHT22;19459;53.044;8.910;2023-04-25T03:38:39;6.60;99.90
33095;DHT22;19459;53.044;8.910;2023-04-25T03:41:06;6.70;99.90
33095;DHT22;19459;53.044;8.910;2023-04-25T03:43:32;6.70;99.90
33095;DHT22;19459;53.044;8.910;2023-04-25T03:45:58;6.70;99.90
33095;DHT22;19459;53.044;8.910;2023-04-25T03:48:25;6.70;99.90
33095;DHT22;19459;53.044;8.910;2023-04-25T03:50:52;6.70;99.90
33095;DHT22;19459;53.044;8.910;2023-04-25T03:53:18;6.70;99.90
33095;DHT22;19459;53.044;8.910;2023-04-25T03:55:44;6.60;99.90
33095;DHT22;19459;53.044;8.910;2023-04-25T03:58:10;6.70;99.90
33095;DHT22;19459;53.044;8.910;2023-04-25T04:00:36;6.70;99.90
33095;DHT22;19459;53.044;8.910;2023-04-25T04:03:02;6.60;99.90
33095;DHT22;19459;53.044;8.910;2023-04-25T04:05:28;6.60;99.90
33095;DHT22;19459;53.044;8.910;2023-04-25T04:07:54;6.60;99.90
33095;DHT22;19459;53.044;8.910;2023-04-25T04:10:20;6.50;99.90
33095;DHT22;19459;53.044;8.910;2023-04-25T04:12:47;6.50;99.90
33095;DHT22;19459;53.044;8.910;2023-04-25T04:15:12;6.50;99.90
33095;DHT22;19459;53.044;8.910;2023-04-25T04:17:38;6.40;99.90
33095;DHT22;19459;53.044;8.910;2023-04-25T04:20:05;6.40;99.90
33095;DHT22;19459;53.044;8.910;2023-04-25T04:22:32;6.30;99.90
33095;DHT22;19459;53.044;8.910;2023-04-25T04:24:58;6.40;99.90
33095;DHT22;19459;53.044;8.910;2023-04-25T04:27:23;6.30;99.90
33095;DHT22;19459;53.044;8.910;2023-04-25T04:29:49;6.30;99.90
33095;DHT22;19459;53.044;8.910;2023-04-25T04:32:17;6.30;99.90
33095;DHT22;19459;53.044;8.910;2023-04-25T04:34:43;6.30;99.90
33095;DHT22;19459;53.044;8.910;2023-04-25T04:37:09;6.20;99.90
33095;DHT22;19459;53.044;8.910;2023-04-25T04:39:36;6.20;99.90
33095;DHT22;19459;53.044;8.910;2023-04-25T04:42:02;6.20;99.90
33095;DHT22;19459;53.044;8.910;2023-04-25T04:44:29;6.20;99.90
33095;DHT22;19459;53.044;8.910;2023-04-25T04:46:58;6.20;99.90
33095;DHT22;19459;53.044;8.910;2023-04-25T04:49:24;6.10;99.90
33095;DHT22;19459;53.044;8.910;2023-04-25T04:51:50;6.20;99.90
33095;DHT22;19459;53.044;8.910;2023-04-25T04:54:16;6.20;99.90
33095;DHT22;19459;53.044;8.910;2023-04-25T04:56:42;6.20;99.90
33095;DHT22;19459;53.044;8.910;2023-04-25T04:59:08;6.30;99.90
33095;DHT22;19459;53.044;8.910;2023-04-25T05:01:34;6.30;99.90
33095;DHT22;19459;53.044;8.910;2023-04-25T05:04:03;6.30;99.90
33095;DHT22;19459;53.044;8.910;2023-04-25T05:06:29;6.30;99.90
33095;DHT22;19459;53.044;8.910;2023-04-25T05:08:56;6.30;99.90
33095;DHT22;19459;53.044;8.910;2023-04-25T05:11:22;6.30;99.90
33095;DHT22;19459;53.044;8.910;2023-04-25T05:13:50;6.30;99.90
33095;DHT22;19459;53.044;8.910;2023-04-25T05:16:17;6.30;99.90
33095;DHT22;19459;53.044;8.910;2023-04-25T05:18:42;6.30;99.90
33095;DHT22;19459;53.044;8.910;2023-04-25T05:21:08;6.30;99.90
33095;DHT22;19459;53.044;8.910;2023-04-25T05:23:34;6.40;99.90
33095;DHT22;19459;53.044;8.910;2023-04-25T05:26:00;6.40;99.90
33095;DHT22;19459;53.044;8.910;2023-04-25T05:28:26;6.40;99.90
33095;DHT22;19459;53.044;8.910;2023-04-25T05:30:52;6.40;99.90
33095;DHT22;19459;53.044;8.910;2023-04-25T05:33:18;6.40;99.90
33095;DHT22;19459;53.044;8.910;2023-04-25T05:35:44;6.50;99.90
33095;DHT22;19459;53.044;8.910;2023-04-25T05:38:10;6.50;99.90
33095;DHT22;19459;53.044;8.910;2023-04-25T05:40:36;6.50;99.90
33095;DHT22;19459;53.044;8.910;2023-04-25T05:43:02;6.50;99.90
33095;DHT22;19459;53.044;8.910;2023-04-25T05:45:28;6.50;99.90
33095;DHT22;19459;53.044;8.910;2023-04-25T05:47:54;6.50;99.90
33095;DHT22;19459;53.044;8.910;2023-04-25T05:50:20;6.50;99.90
33095;DHT22;19459;53.044;8.910;2023-04-25T05:52:46;6.40;99.90
33095;DHT22;19459;53.044;8.910;2023-04-25T05:55:11;6.40;99.90
33095;DHT22;19459;53.044;8.910;2023-04-25T05:57:37;6.50;99.90
33095;DHT22;19459;53.044;8.910;2023-04-25T06:00:07;6.50;99.90
33095;DHT22;19459;53.044;8.910;2023-04-25T06:02:34;6.50;99.90
33095;DHT22;19459;53.044;8.910;2023-04-25T06:05:01;6.60;99.90
33095;DHT22;19459;53.044;8.910;2023-04-25T06:07:29;6.60;99.90
33095;DHT22;19459;53.044;8.910;2023-04-25T06:09:57;6.70;99.90
33095;DHT22;19459;53.044;8.910;2023-04-25T06:12:23;6.80;99.90
33095;DHT22;19459;53.044;8.910;2023-04-25T06:14:49;6.80;99.90
33095;DHT22;19459;53.044;8.910;2023-04-25T06:17:15;6.90;99.90
33095;DHT22;19459;53.044;8.910;2023-04-25T06:19:40;6.90;99.90
33095;DHT22;19459;53.044;8.910;2023-04-25T06:22:07;7.00;99.90
33095;DHT22;19459;53.044;8.910;2023-04-25T06:24:33;7.00;99.90
33095;DHT22;19459;53.044;8.910;2023-04-25T06:27:00;7.10;99.90
33095;DHT22;19459;53.044;8.910;2023-04-25T06:29:25;7.10;99.90
33095;DHT22;19459;53.044;8.910;2023-04-25T06:31:51;7.20;99.90
33095;DHT22;19459;53.044;8.910;2023-04-25T06:34:17;7.30;99.90
33095;DHT22;19459;53.044;8.910;2023-04-25T06:36:43;7.30;99.90
33095;DHT22;19459;53.044;8.910;2023-04-25T06:39:10;7.50;99.90
33095;DHT22;19459;53.044;8.910;2023-04-25T06:41:36;7.50;99.90
33095;DHT22;19459;53.044;8.910;2023-04-25T06:44:02;7.50;99.90
33095;DHT22;19459;53.044;8.910;2023-04-25T06:46:27;7.60;99.90
33095;DHT22;19459;53.044;8.910;2023-04-25T06:48:53;7.70;99.90
33095;DHT22;19459;53.044;8.910;2023-04-25T06:51:19;7.70;99.90
33095;DHT22;19459;53.044;8.910;2023-04-25T06:53:45;7.90;99.90
33095;DHT22;19459;53.044;8.910;2023-04-25T06:56:10;8.00;99.90
33095;DHT22;19459;53.044;8.910;2023-04-25T06:58:36;8.10;99.90
33095;DHT22;19459;53.044;8.910;2023-04-25T07:01:02;8.10;99.90
33095;DHT22;19459;53.044;8.910;2023-04-25T07:03:28;8.10;99.90
33095;DHT22;19459;53.044;8.910;2023-04-25T07:05:54;8.10;99.90
33095;DHT22;19459;53.044;8.910;2023-04-25T07:08:20;8.10;99.90
33095;DHT22;19459;53.044;8.910;2023-04-25T07:10:46;8.10;99.90
33095;DHT22;19459;53.044;8.910;2023-04-25T07:13:12;8.10;99.90
33095;DHT22;19459;53.044;8.910;2023-04-25T07:15:38;8.00;99.90
33095;DHT22;19459;53.044;8.910;2023-04-25T07:18:04;8.10;99.90
33095;DHT22;19459;53.044;8.910;2023-04-25T07:20:30;8.20;99.90
33095;DHT22;19459;53.044;8.910;2023-04-25T07:22:56;8.20;99.90
33095;DHT22;19459;53.044;8.910;2023-04-25T07:25:22;8.10;99.90
33095;DHT22;19459;53.044;8.910;2023-04-25T07:27:48;8.10;99.90
33095;DHT22;19459;53.044;8.910;2023-04-25T07:30:14;8.10;99.90
33095;DHT22;19459;53.044;8.910;2023-04-25T07:32:40;8.10;99.90
33095;DHT22;19459;53.044;8.910;2023-04-25T07:35:06;8.10;99.90
33095;DHT22;19459;53.044;8.910;2023-04-25T07:37:34;8.10;99.90
33095;DHT22;19459;53.044;8.910;2023-04-25T07:40:01;8.10;99.90
33095;DHT22;19459;53.044;8.910;2023-04-25T07:42:29;8.20;99.90
33095;DHT22;19459;53.044;8.910;2023-04-25T07:44:55;8.20;99.90
33095;DHT22;19459;53.044;8.910;2023-04-25T07:47:21;8.40;99.90
33095;DHT22;19459;53.044;8.910;2023-04-25T07:49:47;8.70;99.90
33095;DHT22;19459;53.044;8.910;2023-04-25T07:52:13;8.80;99.90
33095;DHT22;19459;53.044;8.910;2023-04-25T07:54:39;8.70;99.90
33095;DHT22;19459;53.044;8.910;2023-04-25T07:57:05;8.60;99.90
33095;DHT22;19459;53.044;8.910;2023-04-25T07:59:34;8.50;99.90
33095;DHT22;19459;53.044;8.910;2023-04-25T08:02:00;8.80;99.90
33095;DHT22;19459;53.044;8.910;2023-04-25T08:04:26;9.10;99.90
33095;DHT22;19459;53.044;8.910;2023-04-25T08:06:53;9.40;99.90
33095;DHT22;19459;53.044;8.910;2023-04-25T08:09:19;9.60;99.90
33095;DHT22;19459;53.044;8.910;2023-04-25T08:11:46;9.70;99.90
33095;DHT22;19459;53.044;8.910;2023-04-25T08:14:12;9.70;99.90
33095;DHT22;19459;53.044;8.910;2023-04-25T08:16:39;9.40;99.90
33095;DHT22;19459;53.044;8.910;2023-04-25T08:19:05;9.20;99.90
33095;DHT22;19459;53.044;8.910;2023-04-25T08:21:31;9.10;99.90
33095;DHT22;19459;53.044;8.910;2023-04-25T08:23:57;9.00;99.90
33095;DHT22;19459;53.044;8.910;2023-04-25T08:26:24;9.00;99.90
33095;DHT22;19459;53.044;8.910;2023-04-25T08:28:50;8.90;99.90
33095;DHT22;19459;53.044;8.910;2023-04-25T08:31:18;8.80;99.90
33095;DHT22;19459;53.044;8.910;2023-04-25T08:33:44;8.70;99.90
33095;DHT22;19459;53.044;8.910;2023-04-25T08:36:10;8.60;99.90
33095;DHT22;19459;53.044;8.910;2023-04-25T08:38:36;8.30;99.90
33095;DHT22;19459;53.044;8.910;2023-04-25T08:41:11;8.00;99.90
33095;DHT22;19459;53.044;8.910;2023-04-25T08:43:37;7.70;99.90
33095;DHT22;19459;53.044;8.910;2023-04-25T08:46:05;7.60;99.90
33095;DHT22;19459;53.044;8.910;2023-04-25T08:48:33;7.50;99.90
33095;DHT22;19459;53.044;8.910;2023-04-25T08:51:02;7.50;99.90
33095;DHT22;19459;53.044;8.910;2023-04-25T08:53:31;7.60;99.90
33095;DHT22;19459;53.044;8.910;2023-04-25T08:56:01;7.70;99.90
33095;DHT22;19459;53.044;8.910;2023-04-25T08:58:28;7.70;99.90
33095;DHT22;19459;53.044;8.910;2023-04-25T09:00:54;7.90;99.90
33095;DHT22;19459;53.044;8.910;2023-04-25T09:03:20;8.10;99.90
33095;DHT22;19459;53.044;8.910;2023-04-25T09:05:46;8.20;99.90
33095;DHT22;19459;53.044;8.910;2023-04-25T09:08:12;8.40;99.90
33095;DHT22;19459;53.044;8.910;2023-04-25T09:10:38;8.60;99.90
33095;DHT22;19459;53.044;8.910;2023-04-25T09:13:13;8.80;99.90
33095;DHT22;19459;53.044;8.910;2023-04-25T09:15:51;8.90;99.90
33095;DHT22;19459;53.044;8.910;2023-04-25T09:18:31;9.30;99.90
33095;DHT22;19459;53.044;8.910;2023-04-25T09:21:05;9.50;99.90
33095;DHT22;19459;53.044;8.910;2023-04-25T09:23:45;9.90;99.90
33095;DHT22;19459;53.044;8.910;2023-04-25T09:26:20;10.20;99.90
33095;DHT22;19459;53.044;8.910;2023-04-25T09:28:46;10.40;99.90
33095;DHT22;19459;53.044;8.910;2023-04-25T09:31:21;10.40;99.90
33095;DHT22;19459;53.044;8.910;2023-04-25T09:33:49;10.40;99.90
33095;DHT22;19459;53.044;8.910;2023-04-25T09:36:15;10.60;99.90
33095;DHT22;19459;53.044;8.910;2023-04-25T09:38:45;10.60;99.90
33095;DHT22;19459;53.044;8.910;2023-04-25T09:41:11;10.60;99.90
33095;DHT22;19459;53.044;8.910;2023-04-25T09:43:38;10.30;99.90
33095;DHT22;19459;53.044;8.910;2023-04-25T09:46:11;9.90;99.90
33095;DHT22;19459;53.044;8.910;2023-04-25T09:48:37;9.50;99.90
33095;DHT22;19459;53.044;8.910;2023-04-25T09:51:12;9.30;99.90
33095;DHT22;19459;53.044;8.910;2023-04-25T09:53:41;9.30;99.90
33095;DHT22;19459;53.044;8.910;2023-04-25T09:56:10;9.30;99.90
33095;DHT22;19459;53.044;8.910;2023-04-25T09:58:38;9.40;99.90
33095;DHT22;19459;53.044;8.910;2023-04-25T10:01:07;9.60;99.90
33095;DHT22;19459;53.044;8.910;2023-04-25T10:03:38;9.90;99.90
33095;DHT22;19459;53.044;8.910;2023-04-25T10:06:09;10.20;99.90
33095;DHT22;19459;53.044;8.910;2023-04-25T10:08:38;10.90;99.90
33095;DHT22;19459;53.044;8.910;2023-04-25T10:14:45;11.70;99.90
33095;DHT22;19459;53.044;8.910;2023-04-25T10:17:12;12.00;99.90
33095;DHT22;19459;53.044;8.910;2023-04-25T10:19:39;12.10;99.90
33095;DHT22;19459;53.044;8.910;2023-04-25T10:22:20;12.30;98.30
33095;DHT22;19459;53.044;8.910;2023-04-25T10:24:52;12.40;96.60
33095;DHT22;19459;53.044;8.910;2023-04-25T10:27:18;12.80;96.90
33095;DHT22;19459;53.044;8.910;2023-04-25T10:29:44;12.90;94.70
33095;DHT22;19459;53.044;8.910;2023-04-25T10:32:10;13.10;94.60
33095;DHT22;19459;53.044;8.910;2023-04-25T10:34:39;13.10;94.20
33095;DHT22;19459;53.044;8.910;2023-04-25T10:37:09;12.40;94.30
33095;DHT22;19459;53.044;8.910;2023-04-25T10:39:35;12.10;94.70
33095;DHT22;19459;53.044;8.910;2023-04-25T10:42:04;11.60;94.80
33095;DHT22;19459;53.044;8.910;2023-04-25T10:44:30;11.30;95.90
33095;DHT22;19459;53.044;8.910;2023-04-25T10:46:57;10.90;97.60
33095;DHT22;19459;53.044;8.910;2023-04-25T10:49:50;10.80;98.70
33095;DHT22;19459;53.044;8.910;2023-04-25T10:52:26;10.50;99.10
33095;DHT22;19459;53.044;8.910;2023-04-25T10:54:57;10.70;99.60
33095;DHT22;19459;53.044;8.910;2023-04-25T10:57:42;10.90;99.30
33095;DHT22;19459;53.044;8.910;2023-04-25T11:00:14;11.30;98.10
33095;DHT22;19459;53.044;8.910;2023-04-25T11:02:57;11.50;98.30
33095;DHT22;19459;53.044;8.910;2023-04-25T11:05:32;12.00;98.10
33095;DHT22;19459;53.044;8.910;2023-04-25T11:08:00;12.00;98.00
33095;DHT22;19459;53.044;8.910;2023-04-25T11:10:30;12.40;97.60
33095;DHT22;19459;53.044;8.910;2023-04-25T11:12:58;13.00;98.10
33095;DHT22;19459;53.044;8.910;2023-04-25T11:15:25;12.90;96.90
33095;DHT22;19459;53.044;8.910;2023-04-25T11:17:52;12.80;96.20
33095;DHT22;19459;53.044;8.910;2023-04-25T11:20:20;13.20;97.70
33095;DHT22;19459;53.044;8.910;2023-04-25T11:22:47;13.30;97.10
33095;DHT22;19459;53.044;8.910;2023-04-25T11:25:15;13.60;97.10
33095;DHT22;19459;53.044;8.910;2023-04-25T11:27:58;14.00;96.40
33095;DHT22;19459;53.044;8.910;2023-04-25T11:30:26;14.00;96.20
33095;DHT22;19459;53.044;8.910;2023-04-25T11:32:52;14.10;96.10
33095;DHT22;19459;53.044;8.910;2023-04-25T11:35:20;14.00;96.60
33095;DHT22;19459;53.044;8.910;2023-04-25T11:37:48;13.10;97.20
33095;DHT22;19459;53.044;8.910;2023-04-25T11:40:15;12.00;99.30
33095;DHT22;19459;53.044;8.910;2023-04-25T11:42:46;11.30;99.90
33095;DHT22;19459;53.044;8.910;2023-04-25T11:45:12;10.70;99.90
33095;DHT22;19459;53.044;8.910;2023-04-25T11:47:39;10.00;99.90
33095;DHT22;19459;53.044;8.910;2023-04-25T11:50:07;9.30;99.90
33095;DHT22;19459;53.044;8.910;2023-04-25T11:52:41;8.80;99.90
33095;DHT22;19459;53.044;8.910;2023-04-25T11:55:12;8.60;99.90
33095;DHT22;19459;53.044;8.910;2023-04-25T11:57:44;8.60;99.90
33095;DHT22;19459;53.044;8.910;2023-04-25T12:00:16;8.60;99.90
33095;DHT22;19459;53.044;8.910;2023-04-25T12:02:54;8.70;99.90
33095;DHT22;19459;53.044;8.910;2023-04-25T12:05:31;8.80;99.90
33095;DHT22;19459;53.044;8.910;2023-04-25T12:08:09;9.20;99.90
33095;DHT22;19459;53.044;8.910;2023-04-25T12:10:38;9.50;99.90
33095;DHT22;19459;53.044;8.910;2023-04-25T12:13:25;9.80;99.90
33095;DHT22;19459;53.044;8.910;2023-04-25T12:15:56;10.00;99.90
33095;DHT22;19459;53.044;8.910;2023-04-25T12:18:25;10.20;99.90
33095;DHT22;19459;53.044;8.910;2023-04-25T12:20:53;10.40;99.90
33095;DHT22;19459;53.044;8.910;2023-04-25T12:23:26;11.10;99.90
33095;DHT22;19459;53.044;8.910;2023-04-25T12:25:52;11.00;99.90
33095;DHT22;19459;53.044;8.910;2023-04-25T12:28:20;10.80;99.90
33095;DHT22;19459;53.044;8.910;2023-04-25T12:31:06;11.20;99.90
33095;DHT22;19459;53.044;8.910;2023-04-25T12:33:34;11.50;99.90
33095;DHT22;19459;53.044;8.910;2023-04-25T12:36:02;11.30;99.90
33095;DHT22;19459;53.044;8.910;2023-04-25T12:38:38;11.20;99.90
33095;DHT22;19459;53.044;8.910;2023-04-25T12:41:05;11.10;99.90
33095;DHT22;19459;53.044;8.910;2023-04-25T12:43:31;11.10;99.90
33095;DHT22;19459;53.044;8.910;2023-04-25T12:45:57;10.70;99.90
33095;DHT22;19459;53.044;8.910;2023-04-25T12:48:23;10.90;99.90
33095;DHT22;19459;53.044;8.910;2023-04-25T12:50:50;11.30;99.90
33095;DHT22;19459;53.044;8.910;2023-04-25T12:53:21;12.10;99.90
33095;DHT22;19459;53.044;8.910;2023-04-25T12:55:48;12.20;98.50
33095;DHT22;19459;53.044;8.910;2023-04-25T12:58:14;12.50;98.60
33095;DHT22;19459;53.044;8.910;2023-04-25T13:00:41;12.80;97.00
33095;DHT22;19459;53.044;8.910;2023-04-25T13:03:07;13.00;96.40
33095;DHT22;19459;53.044;8.910;2023-04-25T13:05:34;13.20;96.80
33095;DHT22;19459;53.044;8.910;2023-04-25T13:08:00;13.40;96.20
33095;DHT22;19459;53.044;8.910;2023-04-25T13:10:26;13.60;96.70
33095;DHT22;19459;53.044;8.910;2023-04-25T13:12:51;13.10;96.00
33095;DHT22;19459;53.044;8.910;2023-04-25T13:15:17;12.60;96.20
33095;DHT22;19459;53.044;8.910;2023-04-25T13:17:43;11.90;97.70
33095;DHT22;19459;53.044;8.910;2023-04-25T13:20:09;10.80;98.70
33095;DHT22;19459;53.044;8.910;2023-04-25T13:22:39;10.30;99.90
33095;DHT22;19459;53.044;8.910;2023-04-25T13:25:06;9.70;99.90
33095;DHT22;19459;53.044;8.910;2023-04-25T13:27:34;9.50;99.90
33095;DHT22;19459;53.044;8.910;2023-04-25T13:30:03;9.50;99.90
33095;DHT22;19459;53.044;8.910;2023-04-25T13:32:41;9.70;99.90
33095;DHT22;19459;53.044;8.910;2023-04-25T13:35:10;10.30;99.90
33095;DHT22;19459;53.044;8.910;2023-04-25T13:37:38;11.30;99.90
33095;DHT22;19459;53.044;8.910;2023-04-25T13:40:06;12.00;99.90
33095;DHT22;19459;53.044;8.910;2023-04-25T13:42:35;12.80;99.70
33095;DHT22;19459;53.044;8.910;2023-04-25T13:45:02;13.00;96.70
33095;DHT22;19459;53.044;8.910;2023-04-25T13:47:29;13.30;96.60
33095;DHT22;19459;53.044;8.910;2023-04-25T13:49:55;13.40;96.10
33095;DHT22;19459;53.044;8.910;2023-04-25T13:52:21;13.30;95.10
33095;DHT22;19459;53.044;8.910;2023-04-25T13:54:49;12.90;94.30
33095;DHT22;19459;53.044;8.910;2023-04-25T13:57:16;12.80;95.60
33095;DHT22;19459;53.044;8.910;2023-04-25T13:59:43;13.30;95.90
33095;DHT22;19459;53.044;8.910;2023-04-25T14:02:08;13.50;95.20
33095;DHT22;19459;53.044;8.910;2023-04-25T14:04:34;13.80;94.50
33095;DHT22;19459;53.044;8.910;2023-04-25T14:07:01;13.70;92.70
33095;DHT22;19459;53.044;8.910;2023-04-25T14:09:28;13.60;93.30
33095;DHT22;19459;53.044;8.910;2023-04-25T14:11:54;14.00;93.90
33095;DHT22;19459;53.044;8.910;2023-04-25T14:14:21;14.30;93.00
33095;DHT22;19459;53.044;8.910;2023-04-25T14:16:49;14.40;91.10
33095;DHT22;19459;53.044;8.910;2023-04-25T14:19:16;13.60;91.80
33095;DHT22;19459;53.044;8.910;2023-04-25T14:21:42;13.40;94.00
33095;DHT22;19459;53.044;8.910;2023-04-25T14:24:09;13.40;94.60
33095;DHT22;19459;53.044;8.910;2023-04-25T14:26:36;13.40;93.80
33095;DHT22;19459;53.044;8.910;2023-04-25T14:29:06;13.30;93.50
33095;DHT22;19459;53.044;8.910;2023-04-25T14:31:34;13.30;93.90
33095;DHT22;19459;53.044;8.910;2023-04-25T14:34:01;12.80;93.50
33095;DHT22;19459;53.044;8.910;2023-04-25T14:36:30;12.70;94.70
33095;DHT22;19459;53.044;8.910;2023-04-25T14:38:57;12.40;93.20
33095;DHT22;19459;53.044;8.910;2023-04-25T14:41:23;11.90;92.60
33095;DHT22;19459;53.044;8.910;2023-04-25T14:43:50;11.60;94.00
33095;DHT22;19459;53.044;8.910;2023-04-25T14:46:20;10.80;97.50
33095;DHT22;19459;53.044;8.910;2023-04-25T14:48:46;10.00;99.40
33095;DHT22;19459;53.044;8.910;2023-04-25T14:51:12;9.50;99.90
33095;DHT22;19459;53.044;8.910;2023-04-25T14:53:39;9.30;99.90
33095;DHT22;19459;53.044;8.910;2023-04-25T14:56:05;9.20;99.90
33095;DHT22;19459;53.044;8.910;2023-04-25T14:58:32;9.10;99.90
33095;DHT22;19459;53.044;8.910;2023-04-25T15:00:59;9.20;99.90
33095;DHT22;19459;53.044;8.910;2023-04-25T15:03:25;9.30;99.90
33095;DHT22;19459;53.044;8.910;2023-04-25T15:05:53;9.40;99.90
33095;DHT22;19459;53.044;8.910;2023-04-25T15:08:20;9.50;99.90
33095;DHT22;19459;53.044;8.910;2023-04-25T15:10:46;9.70;99.90
33095;DHT22;19459;53.044;8.910;2023-04-25T15:13:12;9.90;99.90
33095;DHT22;19459;53.044;8.910;2023-04-25T15:15:38;10.20;99.90
33095;DHT22;19459;53.044;8.910;2023-04-25T15:18:04;10.20;99.90
33095;DHT22;19459;53.044;8.910;2023-04-25T15:20:30;10.30;99.90
33095;DHT22;19459;53.044;8.910;2023-04-25T15:22:56;10.20;99.90
33095;DHT22;19459;53.044;8.910;2023-04-25T15:25:22;10.20;99.90
33095;DHT22;19459;53.044;8.910;2023-04-25T15:27:48;10.10;99.90
33095;DHT22;19459;53.044;8.910;2023-04-25T15:30:15;9.90;99.90
33095;DHT22;19459;53.044;8.910;2023-04-25T15:32:45;9.80;99.90
33095;DHT22;19459;53.044;8.910;2023-04-25T15:35:13;9.70;99.90
33095;DHT22;19459;53.044;8.910;2023-04-25T15:37:40;9.60;99.90
33095;DHT22;19459;53.044;8.910;2023-04-25T15:40:09;9.50;99.90
33095;DHT22;19459;53.044;8.910;2023-04-25T15:42:39;9.70;99.90
33095;DHT22;19459;53.044;8.910;2023-04-25T15:45:07;9.90;99.90
33095;DHT22;19459;53.044;8.910;2023-04-25T15:47:34;10.00;99.90